Chara, Russia
Current Conditions -  °F | °C
As of 10:30 AM on Tuesday 25 Nov 2014 (Local Time) from UIAA Reporting Station
Haze Haze  
Wind Chill:   Ceiling: 10000
Heat Index:   Visibility: 1.9mi
Dew Point: -4°   Wind: 0mph
Humidity: 85%   Direction: NA
Pressure: 29.47"   Gusts: NA
Location:  56.91°N, 118.26°E
Report Text: UIAA 250130Z 00000MPS 3100 BR OVC100 M18/M20 Q0998 TEMPO 2100BR FEW002 RMK QFE691 29CLRD70
Loading
Personal Weather Stations






























Interactive Weather Map New forecast layout! Learn more

10-Day Weather Forecast

Advertisements
Track Severe Weather on mobile